Airport View

Enter AWOS ICAO identifier for current METAR.

ex. KFNL

PABR 191753Z 08008KT 10SM CLR 07/03 A3014

19 Jun 2019 18:56

Frequency: 132.150

Phone: 907-852-3112

Other Area AWOS: PATQ - PAWI

TAF PABR 191740Z 1918/2018 08010KT P6SM SKC FM192100 09012KT 5SM BR OVC010